createdAt,value
2023-05-15T00:00:56.880Z,73.87
2023-05-15T00:03:25.520Z,73.72
2023-05-15T00:05:52.429Z,73.73
2023-05-15T00:08:19.870Z,73.83
2023-05-15T00:10:59.761Z,74.44
2023-05-15T00:13:27.579Z,74.97
2023-05-15T00:15:54.348Z,75.68
2023-05-15T00:18:21.380Z,76.39
2023-05-15T00:20:48.150Z,76.81
2023-05-15T00:23:15.562Z,77.57
2023-05-15T00:25:42.394Z,77.86
2023-05-15T00:28:09.352Z,77.76
2023-05-15T00:30:36.629Z,77.55
2023-05-15T00:33:03.664Z,76.89
2023-05-15T00:35:32.002Z,76.08
2023-05-15T00:37:58.868Z,77.62
2023-05-15T00:40:25.702Z,79.72
2023-05-15T00:42:52.966Z,79.08
2023-05-15T00:45:20.112Z,79.55
2023-05-15T00:47:47.826Z,79.68
2023-05-15T00:50:14.926Z,78.90
2023-05-15T00:52:41.947Z,79.21
2023-05-15T00:55:10.250Z,79.16
2023-05-15T00:57:37.191Z,78.31
2023-05-15T01:00:09.625Z,78.75
2023-05-15T01:02:37.999Z,78.01
2023-05-15T01:05:07.509Z,77.20
2023-05-15T01:07:45.389Z,76.54
2023-05-15T01:10:12.393Z,76.48
2023-05-15T01:12:39.860Z,77.63
2023-05-15T01:15:09.233Z,78.13
2023-05-15T01:17:36.186Z,77.57
2023-05-15T01:20:05.819Z,78.38
2023-05-15T01:22:53.463Z,75.66
2023-05-15T01:25:43.971Z,73.83
2023-05-15T01:28:12.035Z,72.00
2023-05-15T01:30:40.888Z,71.74
2023-05-15T01:33:17.770Z,72.19
2023-05-15T01:35:51.928Z,75.38
2023-05-15T01:38:38.389Z,76.06
2023-05-15T01:41:15.304Z,75.98
2023-05-15T01:43:43.985Z,75.94
2023-05-15T01:46:15.413Z,76.38
2023-05-15T01:48:43.855Z,75.38
2023-05-15T01:51:11.587Z,76.17
2023-05-15T01:53:38.411Z,97.77
2023-05-15T01:56:07.504Z,100.00
2023-05-15T01:58:37.078Z,100.00
2023-05-15T02:01:07.651Z,100.00
2023-05-15T02:03:35.248Z,100.00
2023-05-15T02:06:02.871Z,100.00
2023-05-15T02:08:31.510Z,100.00
2023-05-15T02:11:00.048Z,99.94
2023-05-15T02:13:27.140Z,97.52
2023-05-15T02:15:54.469Z,98.65
2023-05-15T02:18:21.639Z,98.08
2023-05-15T02:20:48.492Z,96.91
2023-05-15T02:23:15.499Z,95.48
2023-05-15T02:25:54.545Z,94.50
2023-05-15T02:28:36.552Z,93.75
2023-05-15T02:31:12.312Z,93.36
2023-05-15T02:33:49.009Z,93.00
2023-05-15T02:36:22.025Z,94.94
2023-05-15T02:38:53.218Z,93.01
2023-05-15T02:41:20.872Z,91.71
2023-05-15T02:43:48.533Z,91.80
2023-05-15T02:46:17.136Z,91.92
2023-05-15T02:48:44.177Z,91.67
2023-05-15T02:51:13.039Z,91.90
2023-05-15T02:53:40.712Z,100.00
2023-05-15T02:56:08.124Z,100.00
2023-05-15T02:58:36.016Z,100.00
2023-05-15T03:01:03.848Z,100.00
2023-05-15T03:03:30.698Z,100.00
2023-05-15T03:05:57.685Z,100.00
2023-05-15T03:08:24.940Z,100.00
2023-05-15T03:10:52.452Z,98.22
2023-05-15T03:13:19.541Z,92.63
2023-05-15T03:15:46.389Z,92.57
2023-05-15T03:18:13.671Z,88.58
2023-05-15T03:20:41.679Z,82.84
2023-05-15T03:23:08.477Z,78.78
2023-05-15T03:25:35.430Z,77.54
2023-05-15T03:28:02.213Z,77.04
2023-05-15T03:30:29.633Z,76.52
2023-05-15T03:32:57.415Z,76.58
2023-05-15T03:35:25.673Z,76.08
2023-05-15T03:37:52.678Z,74.70
2023-05-15T03:40:19.501Z,72.61
2023-05-15T03:42:46.490Z,71.06
2023-05-15T03:45:13.462Z,71.57
2023-05-15T03:47:42.282Z,69.84
2023-05-15T03:50:09.963Z,67.16
2023-05-15T03:52:36.898Z,63.71
2023-05-15T03:55:06.766Z,88.01
2023-05-15T03:57:35.096Z,99.18
2023-05-15T04:00:06.844Z,99.81
2023-05-15T04:02:40.471Z,90.74
2023-05-15T04:05:08.285Z,69.83
2023-05-15T04:07:35.978Z,60.35
2023-05-15T04:10:03.497Z,55.01
2023-05-15T04:12:33.383Z,52.52
2023-05-15T04:15:19.132Z,51.06
2023-05-15T04:17:48.931Z,49.74
2023-05-15T04:20:17.502Z,47.82
2023-05-15T04:22:44.477Z,51.71
2023-05-15T04:25:13.056Z,54.13
2023-05-15T04:27:42.154Z,55.34
2023-05-15T04:30:09.460Z,56.02
2023-05-15T04:32:37.544Z,54.04
2023-05-15T04:35:05.201Z,51.82
2023-05-15T04:37:32.177Z,53.35
2023-05-15T04:39:59.169Z,51.21
2023-05-15T04:42:26.253Z,49.14
2023-05-15T04:44:53.667Z,47.80
2023-05-15T04:47:20.608Z,47.86
2023-05-15T04:49:49.456Z,48.24
2023-05-15T04:52:16.925Z,45.46
2023-05-15T04:54:43.961Z,40.86
2023-05-15T04:57:10.806Z,39.26
2023-05-15T04:59:37.916Z,38.17
2023-05-15T05:02:04.726Z,42.31
2023-05-15T05:04:33.483Z,43.53
2023-05-15T05:07:00.740Z,43.22
2023-05-15T05:09:28.362Z,41.98
2023-05-15T05:11:55.040Z,38.30
2023-05-15T05:14:22.511Z,35.66
2023-05-15T05:16:49.626Z,35.07
2023-05-15T05:19:17.574Z,35.53
2023-05-15T05:21:44.454Z,34.34
2023-05-15T05:24:11.272Z,34.30
2023-05-15T05:26:38.340Z,34.07
2023-05-15T05:29:05.181Z,33.25
2023-05-15T05:31:32.773Z,35.54
2023-05-15T05:33:59.466Z,35.78
2023-05-15T05:36:26.199Z,34.98
2023-05-15T05:38:53.250Z,34.90
2023-05-15T05:41:21.246Z,35.34
2023-05-15T05:43:48.067Z,35.00
2023-05-15T05:46:14.896Z,33.75
2023-05-15T05:48:42.019Z,33.68
2023-05-15T05:51:08.797Z,33.75
2023-05-15T05:53:37.522Z,33.24
2023-05-15T05:56:05.373Z,31.64
2023-05-15T05:58:32.506Z,32.22
2023-05-15T06:01:00.206Z,33.06
2023-05-15T06:03:28.514Z,33.38
2023-05-15T06:05:55.338Z,33.75
2023-05-15T06:08:22.432Z,32.80
2023-05-15T06:10:49.267Z,32.79
2023-05-15T06:13:16.044Z,33.86
2023-05-15T06:15:42.902Z,34.63
2023-05-15T06:18:09.704Z,35.83
2023-05-15T06:20:37.728Z,35.49
2023-05-15T06:23:04.905Z,36.11
2023-05-15T06:25:32.229Z,35.57
2023-05-15T06:27:59.169Z,34.24
2023-05-15T06:30:26.416Z,34.15
2023-05-15T06:32:53.882Z,34.63
2023-05-15T06:35:23.515Z,33.61
2023-05-15T06:37:51.751Z,32.23
2023-05-15T06:40:18.514Z,32.40
2023-05-15T06:42:46.506Z,32.54
2023-05-15T06:45:13.335Z,31.08
2023-05-15T06:47:40.565Z,30.10
2023-05-15T06:50:07.710Z,30.25
2023-05-15T06:52:34.519Z,31.03
2023-05-15T06:55:01.501Z,30.77
2023-05-15T06:57:28.612Z,30.85
2023-05-15T06:59:55.398Z,29.65
2023-05-15T07:02:22.229Z,30.16
2023-05-15T07:04:51.532Z,29.35
2023-05-15T07:07:18.351Z,26.65
2023-05-15T07:09:47.782Z,26.03
2023-05-15T07:12:15.033Z,25.91
2023-05-15T07:14:41.980Z,25.62
2023-05-15T07:17:09.071Z,24.88
2023-05-15T07:19:36.554Z,25.38
2023-05-15T07:22:03.779Z,24.44
2023-05-15T07:24:31.925Z,24.68
2023-05-15T07:26:59.380Z,24.98
2023-05-15T07:29:26.345Z,25.40
2023-05-15T07:31:53.466Z,25.14
2023-05-15T07:34:20.509Z,23.46
2023-05-15T07:36:49.019Z,23.00
2023-05-15T07:39:16.112Z,23.89
2023-05-15T07:41:46.570Z,24.23
2023-05-15T07:44:15.005Z,24.47
2023-05-15T07:46:45.016Z,23.62
2023-05-15T07:49:11.844Z,23.68
2023-05-15T07:51:40.163Z,24.22
2023-05-15T07:54:10.558Z,23.97
2023-05-15T07:56:37.419Z,24.39
2023-05-15T07:59:04.275Z,24.86
2023-05-15T08:01:51.678Z,23.71
2023-05-15T08:04:18.558Z,24.21
2023-05-15T08:06:46.752Z,23.87
2023-05-15T08:09:13.429Z,23.53
2023-05-15T08:11:40.183Z,23.74
2023-05-15T08:14:07.160Z,23.75
2023-05-15T08:16:34.721Z,23.60
2023-05-15T08:19:04.395Z,23.02
2023-05-15T08:21:32.029Z,23.32
2023-05-15T08:23:59.210Z,23.46
2023-05-15T08:26:26.215Z,23.94
2023-05-15T08:28:52.951Z,24.16
2023-05-15T08:31:20.781Z,23.99
2023-05-15T08:33:48.793Z,23.74
2023-05-15T08:36:17.969Z,22.95
2023-05-15T08:38:45.014Z,22.46
2023-05-15T08:41:25.904Z,22.00
2023-05-15T08:44:01.040Z,22.42
2023-05-15T08:46:28.207Z,22.50
2023-05-15T08:48:55.099Z,22.59
2023-05-15T08:51:21.902Z,22.26
2023-05-15T08:53:49.138Z,23.28
2023-05-15T08:56:16.061Z,22.75
2023-05-15T08:58:43.859Z,22.57
2023-05-15T09:01:11.078Z,22.58
2023-05-15T09:03:38.073Z,22.59
2023-05-15T09:06:05.221Z,22.43
2023-05-15T09:08:32.078Z,23.02
2023-05-15T09:10:58.893Z,22.43
2023-05-15T09:13:26.114Z,22.12
2023-05-15T09:15:53.059Z,22.11
2023-05-15T09:18:22.651Z,22.38
2023-05-15T09:20:51.011Z,22.19
2023-05-15T09:23:27.269Z,22.51
2023-05-15T09:25:56.259Z,22.31
2023-05-15T09:28:29.541Z,22.16
2023-05-15T09:31:04.005Z,21.79
2023-05-15T09:33:37.728Z,22.02
2023-05-15T09:36:06.235Z,22.21
2023-05-15T09:38:35.322Z,22.04
2023-05-15T09:41:04.467Z,22.23
2023-05-15T09:43:36.356Z,21.41
2023-05-15T09:46:03.381Z,21.76
2023-05-15T09:48:30.490Z,21.46
2023-05-15T09:50:57.542Z,21.05
2023-05-15T09:53:24.765Z,20.89
2023-05-15T09:55:51.874Z,21.71
2023-05-15T09:58:19.244Z,20.72
2023-05-15T10:00:48.174Z,21.34
2023-05-15T10:03:19.791Z,21.64
2023-05-15T10:05:46.850Z,21.26
2023-05-15T10:08:15.168Z,21.55
2023-05-15T10:10:43.261Z,21.67
2023-05-15T10:13:10.773Z,21.39
2023-05-15T10:15:37.716Z,21.45
2023-05-15T10:18:05.089Z,21.05
2023-05-15T10:20:35.226Z,20.85
2023-05-15T10:23:04.098Z,21.12
2023-05-15T10:25:42.531Z,21.81
2023-05-15T10:28:10.707Z,21.89
2023-05-15T10:30:38.048Z,21.77
2023-05-15T10:33:06.130Z,21.32
2023-05-15T10:35:35.662Z,21.34
2023-05-15T10:38:03.949Z,21.46
2023-05-15T10:40:31.893Z,21.51
2023-05-15T10:42:58.990Z,21.16
2023-05-15T10:45:25.897Z,21.34
2023-05-15T10:47:52.679Z,21.07
2023-05-15T10:50:19.918Z,21.46
2023-05-15T10:52:49.742Z,21.84
2023-05-15T10:55:17.022Z,21.63
2023-05-15T10:57:47.048Z,21.63
2023-05-15T11:00:23.292Z,21.30
2023-05-15T11:02:54.039Z,21.79
2023-05-15T11:05:20.884Z,21.19
2023-05-15T11:08:20.971Z,21.53
2023-05-15T11:10:48.485Z,21.89
2023-05-15T11:13:15.801Z,22.37
2023-05-15T11:15:43.728Z,22.27
2023-05-15T11:18:10.773Z,22.10
2023-05-15T11:21:01.325Z,22.16
2023-05-15T11:23:28.591Z,22.04
2023-05-15T11:25:56.554Z,21.45
2023-05-15T11:28:24.346Z,21.27
2023-05-15T11:30:52.295Z,21.78
2023-05-15T11:33:19.958Z,22.17
2023-05-15T11:35:47.209Z,21.95
2023-05-15T11:38:25.711Z,21.58
2023-05-15T11:40:52.905Z,21.43
2023-05-15T11:43:27.087Z,22.18
2023-05-15T11:45:57.282Z,22.61
2023-05-15T11:48:26.644Z,22.08
2023-05-15T11:50:53.471Z,21.83
2023-05-15T11:53:20.548Z,22.58
2023-05-15T11:55:47.443Z,22.40
2023-05-15T11:58:16.287Z,21.40
2023-05-15T12:00:44.795Z,20.62
2023-05-15T12:03:24.174Z,22.49
2023-05-15T12:05:58.865Z,22.61
2023-05-15T12:08:30.640Z,22.03
2023-05-15T12:10:57.689Z,22.31
2023-05-15T12:13:25.019Z,22.39
2023-05-15T12:15:51.822Z,22.15
2023-05-15T12:18:18.768Z,21.85
2023-05-15T12:20:46.444Z,21.25
2023-05-15T12:23:16.790Z,21.74
2023-05-15T12:25:44.439Z,21.42
2023-05-15T12:28:11.200Z,21.66
2023-05-15T12:30:38.207Z,22.29
2023-05-15T12:33:06.408Z,22.36
2023-05-15T12:35:35.170Z,22.72
2023-05-15T12:38:05.908Z,22.80
2023-05-15T12:40:33.410Z,22.67
2023-05-15T12:43:06.994Z,22.23
2023-05-15T12:45:35.746Z,22.96
2023-05-15T12:48:03.293Z,22.60
2023-05-15T12:50:32.387Z,22.83
2023-05-15T12:53:03.513Z,22.65
2023-05-15T12:55:36.157Z,22.36
2023-05-15T12:58:10.612Z,22.53
2023-05-15T13:00:38.926Z,23.08
2023-05-15T13:03:07.973Z,23.26
2023-05-15T13:05:35.630Z,23.16
2023-05-15T13:08:04.328Z,23.27
2023-05-15T13:10:32.186Z,23.11
2023-05-15T13:12:59.410Z,22.81
2023-05-15T13:15:28.122Z,23.02
2023-05-15T13:18:08.526Z,22.50
2023-05-15T13:20:40.253Z,22.64
2023-05-15T13:23:07.392Z,22.90
2023-05-15T13:25:35.483Z,22.95
2023-05-15T13:28:03.705Z,23.20
2023-05-15T13:30:34.248Z,23.48
2023-05-15T13:33:01.500Z,23.29
2023-05-15T13:35:28.752Z,23.48
2023-05-15T13:37:56.269Z,23.87
2023-05-15T13:40:24.138Z,23.97
2023-05-15T13:42:51.379Z,24.04
2023-05-15T13:45:18.291Z,24.18
2023-05-15T13:47:45.196Z,23.35
2023-05-15T13:50:13.256Z,23.84
2023-05-15T13:52:40.663Z,23.81
2023-05-15T13:55:09.303Z,23.63
2023-05-15T13:57:37.450Z,23.52
2023-05-15T14:00:07.184Z,23.67
2023-05-15T14:02:34.780Z,23.71
2023-05-15T14:05:01.718Z,22.98
2023-05-15T14:07:30.489Z,23.10
2023-05-15T14:09:57.523Z,23.36
2023-05-15T14:12:25.938Z,23.56
2023-05-15T14:14:52.972Z,23.56
2023-05-15T14:17:21.859Z,23.93
2023-05-15T14:19:50.651Z,23.67
2023-05-15T14:22:17.492Z,23.54
2023-05-15T14:24:44.253Z,24.03
2023-05-15T14:27:11.048Z,23.95
2023-05-15T14:29:38.768Z,24.17
2023-05-15T14:32:07.013Z,24.29
2023-05-15T14:34:33.717Z,24.54
2023-05-15T14:37:00.528Z,24.42
2023-05-15T14:39:27.262Z,24.57
2023-05-15T14:41:54.174Z,24.56
2023-05-15T14:44:20.873Z,24.69
2023-05-15T14:46:47.633Z,25.17
2023-05-15T14:49:14.534Z,24.84
2023-05-15T14:51:41.649Z,25.18
2023-05-15T14:54:09.196Z,24.90
2023-05-15T14:56:37.232Z,25.26
2023-05-15T14:59:03.945Z,25.44
2023-05-15T15:01:30.983Z,25.23
2023-05-15T15:03:57.929Z,25.53
2023-05-15T15:06:24.944Z,25.94
2023-05-15T15:08:52.310Z,25.53
2023-05-15T15:11:19.024Z,25.17
2023-05-15T15:13:45.945Z,24.76
2023-05-15T15:16:12.998Z,25.00
2023-05-15T15:18:39.768Z,25.12
2023-05-15T15:21:07.089Z,25.19
2023-05-15T15:23:34.169Z,25.04
2023-05-15T15:26:00.973Z,24.77
2023-05-15T15:29:00.271Z,25.37
2023-05-15T15:31:30.001Z,25.93
2023-05-15T15:34:01.859Z,26.16
2023-05-15T15:36:30.876Z,26.34
2023-05-15T15:38:57.669Z,26.40
2023-05-15T15:41:24.532Z,26.48
2023-05-15T15:43:51.330Z,26.92
2023-05-15T15:46:18.764Z,26.21
2023-05-15T15:48:45.602Z,25.51
2023-05-15T15:51:12.516Z,26.76
2023-05-15T15:53:39.360Z,27.16
2023-05-15T15:56:06.967Z,27.34
2023-05-15T15:58:34.455Z,27.28
2023-05-15T16:01:02.087Z,25.36
2023-05-15T16:03:28.972Z,25.01
2023-05-15T16:05:56.622Z,24.85
2023-05-15T16:08:24.869Z,24.66
2023-05-15T16:10:53.301Z,24.58
2023-05-15T16:13:20.099Z,24.97
2023-05-15T16:15:47.345Z,27.54
2023-05-15T16:18:14.372Z,28.06
2023-05-15T16:20:41.219Z,28.44
2023-05-15T16:23:10.948Z,28.71
2023-05-15T16:25:37.734Z,28.66
2023-05-15T16:28:04.596Z,28.30
2023-05-15T16:30:47.244Z,28.31
2023-05-15T16:33:16.900Z,27.98
2023-05-15T16:35:44.072Z,28.19
2023-05-15T16:38:10.837Z,28.65
2023-05-15T16:40:37.675Z,28.80
2023-05-15T16:43:05.397Z,28.93
2023-05-15T16:45:32.275Z,28.89
2023-05-15T16:47:59.063Z,28.83
2023-05-15T16:50:26.159Z,28.22
2023-05-15T16:52:53.067Z,28.78
2023-05-15T16:55:20.258Z,29.31
2023-05-15T16:57:47.524Z,29.44
2023-05-15T17:00:14.780Z,29.86
2023-05-15T17:02:42.508Z,29.91
2023-05-15T17:05:10.033Z,30.17
2023-05-15T17:07:37.615Z,30.22
2023-05-15T17:10:08.266Z,30.40
2023-05-15T17:12:35.766Z,30.46
2023-05-15T17:15:03.295Z,30.74
2023-05-15T17:17:30.643Z,30.82
2023-05-15T17:19:59.301Z,30.81
2023-05-15T17:22:26.808Z,30.86
2023-05-15T17:24:53.948Z,29.36
2023-05-15T17:27:20.877Z,30.61
2023-05-15T17:29:48.585Z,31.06
2023-05-15T17:32:17.390Z,31.35
2023-05-15T17:34:44.900Z,31.55
2023-05-15T17:37:12.233Z,31.42
2023-05-15T17:39:39.008Z,32.04
2023-05-15T17:42:05.789Z,32.38
2023-05-15T17:44:33.380Z,32.19
2023-05-15T17:47:00.209Z,32.69
2023-05-15T17:49:27.414Z,32.77
2023-05-15T17:51:54.187Z,32.99
2023-05-15T17:54:20.965Z,32.97
2023-05-15T17:56:47.924Z,33.22
2023-05-15T17:59:15.007Z,33.15
2023-05-15T18:01:41.899Z,33.48
2023-05-15T18:04:09.173Z,32.30
2023-05-15T18:06:38.599Z,31.08
2023-05-15T18:09:05.473Z,30.81
2023-05-15T18:11:32.681Z,30.81
2023-05-15T18:14:00.405Z,30.70
2023-05-15T18:16:27.422Z,30.70
2023-05-15T18:18:54.660Z,30.75
2023-05-15T18:21:22.045Z,30.73
2023-05-15T18:23:49.012Z,30.79
2023-05-15T18:26:15.871Z,30.65
2023-05-15T18:28:43.158Z,31.32
2023-05-15T18:31:10.645Z,33.44
2023-05-15T18:33:40.079Z,34.29
2023-05-15T18:36:07.610Z,34.23
2023-05-15T18:38:36.564Z,34.42
2023-05-15T18:41:03.361Z,34.28
2023-05-15T18:43:32.453Z,35.25
2023-05-15T18:45:59.331Z,35.82
2023-05-15T18:48:26.112Z,36.24
2023-05-15T18:50:53.023Z,36.30
2023-05-15T18:53:19.833Z,35.72
2023-05-15T18:55:46.667Z,36.27
2023-05-15T18:58:13.558Z,36.43
2023-05-15T19:00:40.338Z,36.08
2023-05-15T19:03:07.885Z,36.26
2023-05-15T19:05:35.182Z,36.85
2023-05-15T19:08:03.679Z,35.87
2023-05-15T19:10:31.826Z,34.45
2023-05-15T19:12:58.727Z,34.28
2023-05-15T19:15:25.761Z,34.08
2023-05-15T19:17:52.781Z,34.11
2023-05-15T19:20:20.174Z,33.97
2023-05-15T19:22:47.217Z,34.10
2023-05-15T19:25:14.676Z,33.97
2023-05-15T19:27:41.714Z,34.12
2023-05-15T19:30:09.347Z,34.20
2023-05-15T19:32:38.234Z,34.11
2023-05-15T19:35:05.449Z,33.92
2023-05-15T19:37:32.249Z,33.63
2023-05-15T19:39:59.248Z,33.69
2023-05-15T19:42:26.080Z,33.62
2023-05-15T19:44:53.037Z,33.63
2023-05-15T19:47:20.312Z,33.59
2023-05-15T19:49:47.886Z,33.52
2023-05-15T19:52:15.756Z,33.48
2023-05-15T19:54:42.891Z,33.29
2023-05-15T19:57:10.070Z,33.39
2023-05-15T19:59:37.887Z,33.22
2023-05-15T20:02:09.140Z,33.36
2023-05-15T20:04:36.912Z,33.23
2023-05-15T20:07:04.079Z,33.32
2023-05-15T20:09:30.930Z,33.44
2023-05-15T20:11:57.854Z,33.43
2023-05-15T20:14:25.690Z,33.57
2023-05-15T20:16:52.640Z,33.48
2023-05-15T20:19:21.472Z,33.71
2023-05-15T20:21:48.417Z,34.11
2023-05-15T20:24:16.978Z,34.06
2023-05-15T20:26:44.507Z,34.24
2023-05-15T20:29:11.368Z,34.21
2023-05-15T20:31:39.804Z,34.24
2023-05-15T20:34:07.708Z,34.13
2023-05-15T20:36:35.354Z,34.05
2023-05-15T20:39:05.210Z,33.98
2023-05-15T20:41:33.180Z,33.89
2023-05-15T20:43:59.930Z,33.89
2023-05-15T20:46:29.718Z,33.89
2023-05-15T20:48:57.124Z,33.67
2023-05-15T20:51:24.005Z,33.79
2023-05-15T20:53:50.779Z,33.81
2023-05-15T20:56:18.660Z,33.76
2023-05-15T20:58:45.444Z,33.78
2023-05-15T21:01:12.764Z,33.86
2023-05-15T21:03:39.620Z,34.19
2023-05-15T21:06:06.600Z,34.18
2023-05-15T21:08:33.435Z,34.32
2023-05-15T21:11:00.437Z,34.45
2023-05-15T21:13:27.526Z,34.36
2023-05-15T21:15:54.570Z,34.51
2023-05-15T21:18:22.443Z,34.48
2023-05-15T21:20:49.314Z,34.38
2023-05-15T21:23:16.405Z,34.25
2023-05-15T21:25:43.479Z,34.24
2023-05-15T21:28:10.660Z,34.24
2023-05-15T21:30:37.471Z,34.16
2023-05-15T21:33:04.409Z,34.00
2023-05-15T21:35:31.677Z,34.09
2023-05-15T21:37:59.036Z,34.00
2023-05-15T21:40:26.016Z,34.20
2023-05-15T21:42:53.241Z,34.08
2023-05-15T21:45:20.107Z,33.92
2023-05-15T21:47:46.993Z,33.94
2023-05-15T21:50:14.923Z,34.11
2023-05-15T21:52:42.053Z,34.35
2023-05-15T21:55:08.987Z,34.38
2023-05-15T21:57:35.668Z,34.47
2023-05-15T22:00:03.873Z,34.51
2023-05-15T22:02:33.106Z,34.41
2023-05-15T22:04:59.950Z,34.43
2023-05-15T22:07:26.744Z,34.45
2023-05-15T22:09:53.550Z,34.56
2023-05-15T22:12:20.884Z,34.88
2023-05-15T22:14:58.303Z,34.84
2023-05-15T22:17:26.548Z,34.70
2023-05-15T22:19:53.392Z,34.93
2023-05-15T22:22:20.293Z,34.94
2023-05-15T22:24:47.444Z,35.01
2023-05-15T22:27:16.071Z,35.15
2023-05-15T22:29:43.295Z,34.93
2023-05-15T22:32:10.118Z,34.86
2023-05-15T22:34:37.418Z,35.13
2023-05-15T22:37:04.354Z,35.39
2023-05-15T22:39:32.645Z,35.81
2023-05-15T22:41:59.453Z,35.84
2023-05-15T22:44:26.996Z,35.89
2023-05-15T22:46:53.670Z,36.11
2023-05-15T22:49:24.911Z,36.28
2023-05-15T22:51:52.945Z,36.37
2023-05-15T22:54:21.259Z,36.20
2023-05-15T22:56:49.697Z,36.08
2023-05-15T22:59:16.421Z,36.11
2023-05-15T23:01:43.836Z,36.44
2023-05-15T23:04:11.252Z,36.48
2023-05-15T23:06:39.774Z,36.28
2023-05-15T23:09:07.908Z,36.02
2023-05-15T23:11:35.025Z,36.06
2023-05-15T23:14:02.502Z,35.83
2023-05-15T23:16:30.235Z,35.70
2023-05-15T23:18:57.250Z,35.57
2023-05-15T23:21:24.076Z,35.45
2023-05-15T23:23:51.050Z,35.38
2023-05-15T23:26:17.881Z,35.29
2023-05-15T23:28:44.731Z,35.48
2023-05-15T23:31:14.572Z,35.63
2023-05-15T23:33:41.584Z,35.70
2023-05-15T23:36:08.500Z,35.62
2023-05-15T23:38:35.240Z,35.43
2023-05-15T23:41:02.216Z,35.23
2023-05-15T23:43:29.344Z,35.35
2023-05-15T23:45:56.395Z,35.20
2023-05-15T23:48:23.253Z,35.28
2023-05-15T23:50:51.679Z,34.97
2023-05-15T23:53:18.649Z,34.87
2023-05-15T23:55:45.776Z,34.83
2023-05-15T23:58:12.757Z,34.67
